createdAt,value
2022-10-19T00:01:15.734Z,5.80
2022-10-19T00:03:43.337Z,5.90
2022-10-19T00:06:30.975Z,5.80
2022-10-19T00:09:00.286Z,5.80
2022-10-19T00:11:35.245Z,5.35
2022-10-19T00:14:02.313Z,5.17
2022-10-19T00:16:31.479Z,4.93
2022-10-19T00:19:24.448Z,6.10
2022-10-19T00:24:22.538Z,5.55
2022-10-19T00:26:50.013Z,6.00
2022-10-19T00:29:16.924Z,5.40
2022-10-19T00:31:51.028Z,5.30
2022-10-19T00:34:17.977Z,6.03
2022-10-19T00:36:44.648Z,5.32
2022-10-19T00:39:13.707Z,4.50
2022-10-19T00:41:41.071Z,4.80
2022-10-19T00:44:30.073Z,5.10
2022-10-19T00:47:03.368Z,4.80
2022-10-19T00:49:37.989Z,3.78
2022-10-19T00:52:15.076Z,4.70
2022-10-19T00:54:43.935Z,5.18
2022-10-19T00:57:11.072Z,4.57
2022-10-19T00:59:38.652Z,4.40
2022-10-19T01:02:12.436Z,5.10
2022-10-19T01:04:42.171Z,4.87
2022-10-19T01:07:09.214Z,5.25
2022-10-19T01:09:35.697Z,5.07
2022-10-19T01:12:17.269Z,5.30
2022-10-19T01:15:11.591Z,5.35
2022-10-19T01:17:54.592Z,5.13
2022-10-19T01:21:15.256Z,5.07
2022-10-19T01:24:18.629Z,5.03
2022-10-19T01:27:16.416Z,5.03
2022-10-19T01:30:06.320Z,5.32
2022-10-19T01:33:05.195Z,4.47
2022-10-19T01:35:43.570Z,4.50
2022-10-19T01:38:24.736Z,4.10
2022-10-19T01:41:01.392Z,3.67
2022-10-19T01:43:40.111Z,3.95
2022-10-19T01:46:13.407Z,3.73
2022-10-19T01:48:56.067Z,3.83
2022-10-19T01:51:48.109Z,3.15
2022-10-19T01:54:16.914Z,3.33
2022-10-19T01:56:45.248Z,3.55
2022-10-19T01:59:13.975Z,3.30
2022-10-19T02:01:45.092Z,3.60
2022-10-19T02:04:15.604Z,3.22
2022-10-19T02:06:42.344Z,4.10
2022-10-19T02:09:08.893Z,3.72
2022-10-19T02:11:37.619Z,4.27
2022-10-19T02:14:13.328Z,4.20
2022-10-19T02:17:17.067Z,4.07
2022-10-19T02:19:44.036Z,4.13
2022-10-19T02:22:13.264Z,3.75
2022-10-19T02:24:39.981Z,3.80
2022-10-19T02:27:08.705Z,4.13
2022-10-19T02:29:37.142Z,4.50
2022-10-19T02:32:04.424Z,3.60
2022-10-19T02:34:31.252Z,4.25
2022-10-19T02:36:57.792Z,4.87
2022-10-19T02:39:26.364Z,4.40
2022-10-19T02:42:09.956Z,4.82
2022-10-19T02:44:50.197Z,4.00
2022-10-19T02:47:25.645Z,4.20
2022-10-19T02:49:52.765Z,4.70
2022-10-19T02:52:19.548Z,4.07
2022-10-19T02:54:46.471Z,3.78
2022-10-19T02:57:17.163Z,4.63
2022-10-19T02:59:52.740Z,3.78
2022-10-19T03:02:20.530Z,3.90
2022-10-19T03:07:20.927Z,3.33
2022-10-19T03:09:47.376Z,3.58
2022-10-19T03:12:14.439Z,2.95
2022-10-19T03:14:40.887Z,3.07
2022-10-19T03:17:07.305Z,3.22
2022-10-19T03:19:35.377Z,2.70
2022-10-19T03:22:02.246Z,2.20
2022-10-19T03:24:30.279Z,2.30
2022-10-19T03:26:57.144Z,3.17
2022-10-19T03:29:23.490Z,3.00
2022-10-19T03:31:53.072Z,2.85
2022-10-19T03:34:19.416Z,2.55
2022-10-19T03:36:45.876Z,2.40
2022-10-19T03:39:19.416Z,2.77
2022-10-19T03:41:45.957Z,2.83
2022-10-19T03:44:20.452Z,2.90
2022-10-19T03:46:46.940Z,2.30
2022-10-19T03:49:14.932Z,2.67
2022-10-19T03:51:41.641Z,3.03
2022-10-19T03:54:17.061Z,2.90
2022-10-19T03:56:43.637Z,3.50
2022-10-19T03:59:15.808Z,2.47
2022-10-19T04:01:45.641Z,3.78
2022-10-19T04:04:14.719Z,3.30
2022-10-19T04:06:43.425Z,3.50
2022-10-19T04:09:12.930Z,3.38
2022-10-19T04:11:39.679Z,3.28
2022-10-19T04:14:06.388Z,2.85
2022-10-19T04:16:47.326Z,2.90
2022-10-19T04:19:15.128Z,2.80
2022-10-19T04:21:50.797Z,3.28
2022-10-19T04:24:18.627Z,3.20
2022-10-19T04:26:50.400Z,3.17
2022-10-19T04:29:30.905Z,3.23
2022-10-19T04:32:19.376Z,3.00
2022-10-19T04:34:45.888Z,2.85
2022-10-19T04:37:23.589Z,2.95
2022-10-19T04:40:25.609Z,3.00
2022-10-19T04:43:22.315Z,3.10
2022-10-19T04:45:48.753Z,2.53
2022-10-19T04:48:18.201Z,3.20
2022-10-19T04:50:44.625Z,2.88
2022-10-19T04:53:19.334Z,2.38
2022-10-19T04:55:45.813Z,2.10
2022-10-19T04:58:12.210Z,2.50
2022-10-19T05:00:39.103Z,2.42
2022-10-19T05:03:05.551Z,2.90
2022-10-19T05:05:35.516Z,2.42
2022-10-19T05:08:11.437Z,2.50
2022-10-19T05:11:04.988Z,3.03
2022-10-19T05:13:35.328Z,2.38
2022-10-19T05:16:04.428Z,2.88
2022-10-19T05:18:31.125Z,2.72
2022-10-19T05:21:14.944Z,2.83
2022-10-19T05:23:46.560Z,2.60
2022-10-19T05:26:19.334Z,2.22
2022-10-19T05:29:04.847Z,2.63
2022-10-19T05:31:47.753Z,2.38
2022-10-19T05:34:40.060Z,2.43
2022-10-19T05:37:06.476Z,2.08
2022-10-19T05:39:32.936Z,2.20
2022-10-19T05:41:59.385Z,2.00
2022-10-19T05:44:25.868Z,1.83
2022-10-19T05:46:52.753Z,2.20
2022-10-19T05:49:35.576Z,2.20
2022-10-19T05:52:03.377Z,2.15
2022-10-19T05:54:29.808Z,2.03
2022-10-19T05:56:56.401Z,2.30
2022-10-19T05:59:39.162Z,1.90
2022-10-19T06:02:06.492Z,2.00
2022-10-19T06:04:43.035Z,1.90
2022-10-19T06:07:09.572Z,1.98
2022-10-19T06:09:50.361Z,2.25
2022-10-19T06:12:24.243Z,1.97
2022-10-19T06:15:14.492Z,1.50
2022-10-19T06:17:40.972Z,1.92
2022-10-19T06:20:19.603Z,1.70
2022-10-19T06:22:46.146Z,2.10
2022-10-19T06:25:15.494Z,2.33
2022-10-19T06:27:44.682Z,1.58
2022-10-19T06:30:11.584Z,1.70
2022-10-19T06:32:38.026Z,1.90
2022-10-19T06:35:04.820Z,2.42
2022-10-19T06:37:56.270Z,2.07
2022-10-19T06:40:27.380Z,2.33
2022-10-19T06:43:02.601Z,2.20
2022-10-19T06:46:08.851Z,2.22
2022-10-19T06:49:03.908Z,2.40
2022-10-19T06:57:58.072Z,2.10
2022-10-19T07:00:30.300Z,2.45
2022-10-19T07:03:14.796Z,2.67
2022-10-19T07:06:39.178Z,2.07
2022-10-19T07:10:02.959Z,2.08
2022-10-19T07:13:04.730Z,2.20
2022-10-19T07:16:05.714Z,1.63
2022-10-19T07:18:40.895Z,2.17
2022-10-19T07:21:22.253Z,1.57
2022-10-19T07:23:54.722Z,1.50
2022-10-19T07:26:29.168Z,1.48
2022-10-19T07:29:05.890Z,1.80
2022-10-19T07:31:44.770Z,1.40
2022-10-19T07:34:17.460Z,1.77
2022-10-19T07:36:48.485Z,1.13
2022-10-19T07:39:32.991Z,1.40
2022-10-19T07:42:12.873Z,1.92
2022-10-19T07:44:58.331Z,1.60
2022-10-19T07:47:25.643Z,2.20
2022-10-19T07:49:54.078Z,1.83
2022-10-19T07:52:21.602Z,1.75
2022-10-19T07:54:49.927Z,1.48
2022-10-19T07:57:16.983Z,1.60
2022-10-19T07:59:43.992Z,1.60
2022-10-19T08:02:30.818Z,1.55
2022-10-19T08:05:10.526Z,1.40
2022-10-19T08:07:38.008Z,1.48
2022-10-19T08:10:05.478Z,2.10
2022-10-19T08:12:32.463Z,1.90
2022-10-19T08:14:59.289Z,1.80
2022-10-19T08:17:26.363Z,1.70
2022-10-19T08:19:53.035Z,1.83
2022-10-19T08:22:19.548Z,2.05
2022-10-19T08:24:46.060Z,1.50
2022-10-19T08:27:17.658Z,1.40
2022-10-19T08:29:44.059Z,1.48
2022-10-19T08:32:10.793Z,2.70
2022-10-19T08:34:59.102Z,1.38
2022-10-19T08:37:40.669Z,1.90
2022-10-19T08:40:31.703Z,1.90
2022-10-19T08:43:38.190Z,1.63
2022-10-19T08:46:37.654Z,1.60
2022-10-19T08:49:04.501Z,1.52
2022-10-19T08:51:38.431Z,1.73
2022-10-19T08:54:16.188Z,1.77
2022-10-19T08:57:04.216Z,1.77
2022-10-19T09:00:06.649Z,1.67
2022-10-19T09:03:11.848Z,1.70
2022-10-19T09:05:44.819Z,2.73
2022-10-19T09:08:17.453Z,1.80
2022-10-19T09:10:49.036Z,1.98
2022-10-19T09:13:46.969Z,1.40
2022-10-19T09:16:21.640Z,1.85
2022-10-19T09:18:49.629Z,1.50
2022-10-19T09:21:30.164Z,2.20
2022-10-19T09:24:18.029Z,1.90
2022-10-19T09:27:03.064Z,1.42
2022-10-19T09:29:38.652Z,1.90
2022-10-19T09:32:30.567Z,2.13
2022-10-19T09:35:02.440Z,1.83
2022-10-19T09:37:32.139Z,1.70
2022-10-19T09:39:59.782Z,2.10
2022-10-19T09:42:33.666Z,1.73
2022-10-19T09:45:30.507Z,1.80
2022-10-19T09:48:12.765Z,1.45
2022-10-19T09:50:43.672Z,1.60
2022-10-19T09:53:19.720Z,1.83
2022-10-19T09:56:17.011Z,1.35
2022-10-19T09:58:50.661Z,1.30
2022-10-19T10:01:43.177Z,1.90
2022-10-19T10:04:18.335Z,1.58
2022-10-19T10:06:56.960Z,1.50
2022-10-19T10:09:29.080Z,1.30
2022-10-19T10:12:42.418Z,0.90
2022-10-19T10:15:39.861Z,1.23
2022-10-19T10:18:28.120Z,1.00
2022-10-19T10:21:12.574Z,1.15
2022-10-19T10:23:40.397Z,0.75
2022-10-19T10:26:19.592Z,1.17
2022-10-19T10:28:48.955Z,0.75
2022-10-19T10:31:19.760Z,1.30
2022-10-19T10:33:54.703Z,1.08
2022-10-19T10:36:27.709Z,0.75
2022-10-19T10:39:16.270Z,1.00
2022-10-19T10:41:48.276Z,0.98
2022-10-19T10:44:21.710Z,1.00
2022-10-19T10:47:06.803Z,0.73
2022-10-19T10:49:44.571Z,0.82
2022-10-19T10:52:14.413Z,1.30
2022-10-19T10:54:41.006Z,0.95
2022-10-19T11:04:16.828Z,1.02
2022-10-19T11:07:00.911Z,1.00
2022-10-19T11:09:44.748Z,1.15
2022-10-19T11:12:19.251Z,0.95
2022-10-19T11:14:59.181Z,1.10
2022-10-19T11:17:30.261Z,0.88
2022-10-19T11:20:07.012Z,0.90
2022-10-19T11:22:37.927Z,1.20
2022-10-19T11:25:35.913Z,0.90
2022-10-19T11:28:34.603Z,0.60
2022-10-19T11:31:21.134Z,1.00
2022-10-19T11:34:23.692Z,0.90
2022-10-19T11:37:16.269Z,1.00
2022-10-19T11:40:27.508Z,0.80
2022-10-19T11:43:12.585Z,1.40
2022-10-19T11:46:39.589Z,0.73
2022-10-19T11:49:50.846Z,1.00
2022-10-19T11:52:46.516Z,1.20
2022-10-19T11:55:53.911Z,0.50
2022-10-19T12:01:56.601Z,1.33
2022-10-19T12:04:51.336Z,0.50
2022-10-19T12:07:38.584Z,1.00
2022-10-19T12:10:29.385Z,1.17
2022-10-19T12:13:08.828Z,0.88
2022-10-19T12:15:55.145Z,1.23
2022-10-19T12:18:35.948Z,1.10
2022-10-19T12:21:09.100Z,1.10
2022-10-19T12:23:39.132Z,1.10
2022-10-19T12:26:14.368Z,0.95
2022-10-19T12:28:46.877Z,1.13
2022-10-19T12:31:14.253Z,0.70
2022-10-19T12:33:59.330Z,1.10
2022-10-19T12:36:58.161Z,0.98
2022-10-19T12:39:53.741Z,1.20
2022-10-19T12:42:33.536Z,0.95
2022-10-19T12:45:31.035Z,1.50
2022-10-19T12:48:22.125Z,1.33
2022-10-19T12:51:05.829Z,1.50
2022-10-19T12:53:38.132Z,1.40
2022-10-19T12:56:26.945Z,1.33
2022-10-19T12:59:02.177Z,1.67
2022-10-19T13:01:44.079Z,1.58
2022-10-19T13:04:21.211Z,1.73
2022-10-19T13:06:57.824Z,1.33
2022-10-19T13:09:41.975Z,1.73
2022-10-19T13:12:22.144Z,1.50
2022-10-19T13:15:02.077Z,1.40
2022-10-19T13:17:35.025Z,1.35
2022-10-19T13:20:15.772Z,1.23
2022-10-19T13:22:47.370Z,1.00
2022-10-19T13:25:40.448Z,1.20
2022-10-19T13:28:15.133Z,1.23
2022-10-19T13:30:42.260Z,1.38
2022-10-19T13:33:34.973Z,1.27
2022-10-19T13:36:04.334Z,1.20
2022-10-19T13:38:43.465Z,1.43
2022-10-19T13:41:40.017Z,1.23
2022-10-19T13:44:45.568Z,1.35
2022-10-19T13:47:33.677Z,1.23
2022-10-19T13:50:29.489Z,1.20
2022-10-19T13:53:31.270Z,0.70
2022-10-19T13:56:26.476Z,1.08
2022-10-19T13:59:20.653Z,0.70
2022-10-19T14:02:20.912Z,0.88
2022-10-19T14:05:29.243Z,1.08
2022-10-19T14:08:04.922Z,1.17
2022-10-19T14:10:33.084Z,0.80
2022-10-19T14:13:14.359Z,0.75
2022-10-19T14:15:53.925Z,0.52
2022-10-19T14:18:29.120Z,0.63
2022-10-19T14:21:05.055Z,1.10
2022-10-19T14:23:34.230Z,0.90
2022-10-19T14:26:07.402Z,0.70
2022-10-19T14:28:34.658Z,0.73
2022-10-19T14:31:04.782Z,0.90
2022-10-19T14:33:38.707Z,0.93
2022-10-19T14:36:07.952Z,1.05
2022-10-19T14:38:40.372Z,0.60
2022-10-19T14:41:27.765Z,0.65
2022-10-19T14:43:56.076Z,0.70
2022-10-19T14:46:28.813Z,0.60
2022-10-19T14:49:01.337Z,0.70
2022-10-19T14:51:45.525Z,1.15
2022-10-19T14:54:36.445Z,1.30
2022-10-19T14:57:08.428Z,1.00
2022-10-19T14:59:52.338Z,0.83
2022-10-19T15:02:34.043Z,0.90
2022-10-19T15:05:03.241Z,0.90
2022-10-19T15:07:34.290Z,1.33
2022-10-19T15:10:03.740Z,1.08
2022-10-19T15:12:38.461Z,0.90
2022-10-19T15:15:28.210Z,1.20
2022-10-19T15:18:30.176Z,1.17
2022-10-19T15:21:14.304Z,1.45
2022-10-19T15:23:46.814Z,1.20
2022-10-19T15:26:18.561Z,1.00
2022-10-19T15:28:46.114Z,0.98
2022-10-19T15:31:19.892Z,0.77
2022-10-19T15:34:22.925Z,1.15
2022-10-19T15:37:01.422Z,1.27
2022-10-19T15:39:42.112Z,0.82
2022-10-19T15:42:49.008Z,0.80
2022-10-19T15:45:35.983Z,1.17
2022-10-19T15:48:26.177Z,0.98
2022-10-19T15:50:56.921Z,1.40
2022-10-19T15:53:23.731Z,1.20
2022-10-19T15:55:50.241Z,1.08
2022-10-19T15:58:17.949Z,1.20
2022-10-19T16:00:52.837Z,0.95
2022-10-19T16:03:38.513Z,1.03
2022-10-19T16:06:38.000Z,1.25
2022-10-19T16:09:04.773Z,1.08
2022-10-19T16:11:32.325Z,1.10
2022-10-19T16:14:09.174Z,1.30
2022-10-19T16:16:35.828Z,1.03
2022-10-19T16:19:02.520Z,1.60
2022-10-19T16:21:32.878Z,1.25
2022-10-19T16:24:46.166Z,1.60
2022-10-19T16:27:39.693Z,1.63
2022-10-19T16:30:34.320Z,1.90
2022-10-19T16:33:00.860Z,1.98
2022-10-19T16:35:46.763Z,1.83
2022-10-19T16:38:13.675Z,2.53
2022-10-19T16:40:40.132Z,2.72
2022-10-19T16:43:07.700Z,2.27
2022-10-19T16:45:34.300Z,2.88
2022-10-19T16:48:05.910Z,2.53
2022-10-19T16:50:32.405Z,2.60
2022-10-19T16:53:47.805Z,2.72
2022-10-19T16:56:14.346Z,2.80
2022-10-19T16:58:40.928Z,2.65
2022-10-19T17:01:19.633Z,2.83
2022-10-19T17:03:48.512Z,3.05
2022-10-19T17:06:16.249Z,2.53
2022-10-19T17:11:35.342Z,2.85
2022-10-19T17:14:19.353Z,3.42
2022-10-19T17:16:45.847Z,3.35
2022-10-19T17:19:17.435Z,3.45
2022-10-19T17:21:43.906Z,3.23
2022-10-19T17:24:21.168Z,3.40
2022-10-19T17:26:52.329Z,3.47
2022-10-19T17:29:25.007Z,3.83
2022-10-19T17:32:04.745Z,3.10
2022-10-19T17:34:41.370Z,4.20
2022-10-19T17:37:44.963Z,3.70
2022-10-19T17:40:11.786Z,3.55
2022-10-19T17:42:38.243Z,4.00
2022-10-19T17:45:04.973Z,3.53
2022-10-19T17:47:38.228Z,3.93
2022-10-19T17:50:05.347Z,3.88
2022-10-19T17:52:44.171Z,3.42
2022-10-19T17:55:27.226Z,3.20
2022-10-19T17:58:09.032Z,3.90
2022-10-19T18:00:39.319Z,3.83
2022-10-19T18:03:09.995Z,3.17
2022-10-19T18:06:12.679Z,3.13
2022-10-19T18:08:42.542Z,3.13
2022-10-19T18:11:09.169Z,4.15
2022-10-19T18:16:12.721Z,3.97
2022-10-19T18:18:41.600Z,3.70
2022-10-19T18:21:11.705Z,3.42
2022-10-19T18:23:40.634Z,4.93
2022-10-19T18:26:10.475Z,3.93
2022-10-19T18:28:37.223Z,3.72
2022-10-19T18:31:16.663Z,3.90
2022-10-19T18:33:48.477Z,4.45
2022-10-19T18:36:15.515Z,4.03
2022-10-19T18:38:42.309Z,4.23
2022-10-19T18:41:16.153Z,4.00
2022-10-19T18:43:42.720Z,4.05
2022-10-19T18:46:15.412Z,3.92
2022-10-19T18:48:43.749Z,3.60
2022-10-19T18:51:23.577Z,3.73
2022-10-19T18:53:50.409Z,3.22
2022-10-19T18:56:29.481Z,3.85
2022-10-19T18:58:56.884Z,3.45
2022-10-19T19:01:26.825Z,3.20
2022-10-19T19:03:56.087Z,3.17
2022-10-19T19:06:59.727Z,2.97
2022-10-19T19:09:26.182Z,2.72
2022-10-19T19:11:54.289Z,2.83
2022-10-19T19:14:21.165Z,3.05
2022-10-19T19:16:47.981Z,3.43
2022-10-19T19:19:25.817Z,3.25
2022-10-19T19:21:52.453Z,3.00
2022-10-19T19:24:21.873Z,2.83
2022-10-19T19:26:51.579Z,3.50
2022-10-19T19:29:18.955Z,3.23
2022-10-19T19:31:45.514Z,3.30
2022-10-19T19:34:38.360Z,3.22
2022-10-19T19:37:22.227Z,2.65
2022-10-19T19:39:48.666Z,3.00
2022-10-19T19:42:15.534Z,3.00
2022-10-19T19:44:50.879Z,2.72
2022-10-19T19:47:31.543Z,3.10
2022-10-19T19:49:57.975Z,3.15
2022-10-19T19:52:34.898Z,2.85
2022-10-19T19:55:04.955Z,2.90
2022-10-19T19:57:31.390Z,2.70
2022-10-19T19:59:57.797Z,2.90
2022-10-19T20:02:37.112Z,3.33
2022-10-19T20:05:04.131Z,2.92
2022-10-19T20:07:30.620Z,3.43
2022-10-19T20:09:57.446Z,3.13
2022-10-19T20:12:26.074Z,3.55
2022-10-19T20:15:18.844Z,3.08
2022-10-19T20:17:45.315Z,2.72
2022-10-19T20:20:13.659Z,2.87
2022-10-19T20:22:40.258Z,3.58
2022-10-19T20:25:07.010Z,2.88
2022-10-19T20:27:36.830Z,3.05
2022-10-19T20:30:04.179Z,3.45
2022-10-19T20:32:38.224Z,3.40
2022-10-19T20:35:05.144Z,3.25
2022-10-19T20:37:31.634Z,3.08
2022-10-19T20:39:58.082Z,2.67
2022-10-19T20:42:24.700Z,2.97
2022-10-19T20:44:55.490Z,3.20
2022-10-19T20:47:38.173Z,2.97
2022-10-19T20:50:07.469Z,2.92
2022-10-19T20:52:36.940Z,3.00
2022-10-19T20:55:04.078Z,3.80
2022-10-19T20:57:30.491Z,3.03
2022-10-19T20:59:56.933Z,3.13
2022-10-19T21:02:23.464Z,2.78
2022-10-19T21:04:50.997Z,2.85
2022-10-19T21:07:17.387Z,3.17
2022-10-19T21:09:43.992Z,2.20
2022-10-19T21:12:10.437Z,2.22
2022-10-19T21:14:37.250Z,2.80
2022-10-19T21:17:12.978Z,2.88
2022-10-19T21:19:45.759Z,3.17
2022-10-19T21:22:12.775Z,2.87
2022-10-19T21:24:39.697Z,3.10
2022-10-19T21:27:08.993Z,2.85
2022-10-19T21:29:37.190Z,2.75
2022-10-19T21:32:18.821Z,3.05
2022-10-19T21:34:45.264Z,2.50
2022-10-19T21:37:29.157Z,2.92
2022-10-19T21:39:59.595Z,3.03
2022-10-19T21:42:40.302Z,2.65
2022-10-19T21:45:36.270Z,3.47
2022-10-19T21:48:21.861Z,2.60
2022-10-19T21:50:53.378Z,2.80
2022-10-19T21:53:44.034Z,2.67
2022-10-19T21:56:10.445Z,3.03
2022-10-19T21:58:48.230Z,2.53
2022-10-19T22:01:16.418Z,2.80
2022-10-19T22:03:43.033Z,3.25
2022-10-19T22:06:09.395Z,2.80
2022-10-19T22:08:43.440Z,3.20
2022-10-19T22:11:13.545Z,2.75
2022-10-19T22:13:57.189Z,2.77
2022-10-19T22:16:32.754Z,3.45
2022-10-19T22:18:59.241Z,2.90
2022-10-19T22:21:39.132Z,2.60
2022-10-19T22:24:18.687Z,3.10
2022-10-19T22:26:47.484Z,2.63
2022-10-19T22:29:18.323Z,3.22
2022-10-19T22:31:46.776Z,2.40
2022-10-19T22:34:17.375Z,3.03
2022-10-19T22:36:44.914Z,3.03
2022-10-19T22:39:11.867Z,3.20
2022-10-19T22:41:50.610Z,2.75
2022-10-19T22:44:44.993Z,2.70
2022-10-19T22:47:27.640Z,2.78
2022-10-19T22:50:24.037Z,2.95
2022-10-19T22:53:07.729Z,2.60
2022-10-19T22:55:35.209Z,2.72
2022-10-19T23:01:10.618Z,2.55
2022-10-19T23:03:39.319Z,2.78
2022-10-19T23:06:11.484Z,3.13
2022-10-19T23:08:39.094Z,3.17
2022-10-19T23:11:05.722Z,2.97
2022-10-19T23:13:59.024Z,2.50
2022-10-19T23:16:25.497Z,2.80
2022-10-19T23:18:57.017Z,2.97
2022-10-19T23:21:23.556Z,3.65
2022-10-19T23:23:55.816Z,2.78
2022-10-19T23:26:22.297Z,2.70
2022-10-19T23:28:50.141Z,2.70
2022-10-19T23:31:34.784Z,3.50
2022-10-19T23:34:09.308Z,2.97
2022-10-19T23:36:41.755Z,3.47
2022-10-19T23:39:08.127Z,3.38
2022-10-19T23:42:06.492Z,3.25
2022-10-19T23:44:39.102Z,3.03
2022-10-19T23:47:05.453Z,3.20
2022-10-19T23:49:37.899Z,2.60
2022-10-19T23:52:19.718Z,3.38
2022-10-19T23:54:46.088Z,2.80
2022-10-19T23:57:12.470Z,3.40
2022-10-19T23:59:38.830Z,2.83
